Sifnos, Greece
Current Conditions -  °F | °C
As of 2:50 PM on Tuesday 27 Jan 2015 (Local Time) from LGMK Reporting Station
Moderate Rain Moderate Rain  
Wind Chill: 44°   Ceiling: 2000
Heat Index: 48°   Visibility: 5mi
Dew Point: 45°   Wind: 10mph
Humidity: 87%   Direction: 300°WNW
Pressure: 29.85"   Gusts: NA
Location:  36.98°N, 24.7°E
Report Text: LGMK 271150Z 30009KT 8000 RA SCT010 FEW018TCU BKN020 OVC070 09/07 Q1011
Loading
Personal Weather Stations






























Interactive Weather Map New forecast layout! Learn more

10-Day Weather Forecast

Advertisements
Track Severe Weather on mobile